CheckWX is a tool to help pilots better visualize weather data.  It is not intended as a substitute for an official pre-flight weather briefing.

19:51:05 UTC

LFMO METAR
Orange-Caritat (BA 115) Air Base Airport
Orange/Caritat, France
Current

21 mins ago

LFMO 291930Z AUTO VRB03KT 9999 ////// 06/04 Q1021
Observed
Jan-29 @ 19:30 UTC
Wind
  • Variable at 3 KTS
Visibility
10,000+ meters
Temperature
C / 43°F
Dewpoint
C / 39°F
Humidity
87%
Altimeter
30.15" Hg
Pressure
1020.92 hPa
Previous

51 mins ago

LFMO 291900Z AUTO VRB02KT 9999 ////// 06/04 Q1020
Observed
Jan-29 @ 19:00 UTC
Wind
  • Variable at 2 KTS
Visibility
10,000+ meters
Temperature
C / 43°F
Dewpoint
C / 39°F
Humidity
87%
Altimeter
30.12" Hg
Pressure
1019.92 hPa
Previous

1 hour ago

LFMO 291830Z AUTO VRB03KT CAVOK 07/04 Q1020 NOSIG
Observed
Jan-29 @ 18:30 UTC
Wind
  • Variable at 3 KTS
Visibility
10,000+ meters
Flight Rules
VFR
Cloud Levels
  • Clear skies
Temperature
C / 45°F
Dewpoint
C / 39°F
Humidity
81%
Altimeter
30.12" Hg
Pressure
1019.92 hPa